sensor_id;sensor_type;location;lat;lon;timestamp;P1;durP1;ratioP1;P2;durP2;ratioP2
75687;SDS011;64300;45.034;38.910;2023-02-05T00:01:14;7.38;;;3.63;;
75687;SDS011;64300;45.034;38.910;2023-02-05T00:03:40;9.13;;;4.22;;
75687;SDS011;64300;45.034;38.910;2023-02-05T00:06:06;8.00;;;3.78;;
75687;SDS011;64300;45.034;38.910;2023-02-05T00:08:33;7.78;;;3.78;;
75687;SDS011;64300;45.034;38.910;2023-02-05T00:13:32;7.28;;;3.30;;
75687;SDS011;64300;45.034;38.910;2023-02-05T00:15:57;8.52;;;3.15;;
75687;SDS011;64300;45.034;38.910;2023-02-05T00:18:23;5.95;;;3.08;;
75687;SDS011;64300;45.034;38.910;2023-02-05T00:20:49;6.47;;;3.13;;
75687;SDS011;64300;45.034;38.910;2023-02-05T00:23:15;6.32;;;3.53;;
75687;SDS011;64300;45.034;38.910;2023-02-05T00:25:41;7.90;;;3.40;;
75687;SDS011;64300;45.034;38.910;2023-02-05T00:28:06;10.48;;;4.40;;
75687;SDS011;64300;45.034;38.910;2023-02-05T00:30:32;8.30;;;3.67;;
75687;SDS011;64300;45.034;38.910;2023-02-05T00:32:58;9.90;;;4.35;;
75687;SDS011;64300;45.034;38.910;2023-02-05T00:35:24;8.25;;;3.92;;
75687;SDS011;64300;45.034;38.910;2023-02-05T00:37:50;9.23;;;4.40;;
75687;SDS011;64300;45.034;38.910;2023-02-05T00:40:15;8.80;;;4.30;;
75687;SDS011;64300;45.034;38.910;2023-02-05T00:42:41;8.65;;;4.90;;
75687;SDS011;64300;45.034;38.910;2023-02-05T00:45:07;11.30;;;5.13;;
75687;SDS011;64300;45.034;38.910;2023-02-05T00:47:33;9.68;;;4.75;;
75687;SDS011;64300;45.034;38.910;2023-02-05T00:49:59;9.63;;;5.20;;
75687;SDS011;64300;45.034;38.910;2023-02-05T00:52:25;8.80;;;4.45;;
75687;SDS011;64300;45.034;38.910;2023-02-05T00:54:54;10.55;;;5.53;;
75687;SDS011;64300;45.034;38.910;2023-02-05T00:57:20;8.02;;;4.07;;
75687;SDS011;64300;45.034;38.910;2023-02-05T00:59:51;11.60;;;4.82;;
75687;SDS011;64300;45.034;38.910;2023-02-05T01:02:18;11.40;;;4.95;;
75687;SDS011;64300;45.034;38.910;2023-02-05T01:04:50;10.98;;;5.18;;
75687;SDS011;64300;45.034;38.910;2023-02-05T01:07:19;10.35;;;4.90;;
75687;SDS011;64300;45.034;38.910;2023-02-05T01:09:45;11.73;;;4.68;;
75687;SDS011;64300;45.034;38.910;2023-02-05T01:14:41;10.85;;;5.68;;
75687;SDS011;64300;45.034;38.910;2023-02-05T01:19:33;10.18;;;5.38;;
75687;SDS011;64300;45.034;38.910;2023-02-05T01:24:26;10.32;;;5.05;;
75687;SDS011;64300;45.034;38.910;2023-02-05T01:26:52;13.20;;;5.45;;
75687;SDS011;64300;45.034;38.910;2023-02-05T01:29:24;10.88;;;6.18;;
75687;SDS011;64300;45.034;38.910;2023-02-05T01:31:50;10.50;;;5.47;;
75687;SDS011;64300;45.034;38.910;2023-02-05T01:36:42;14.88;;;5.88;;
75687;SDS011;64300;45.034;38.910;2023-02-05T01:39:08;13.70;;;6.57;;
75687;SDS011;64300;45.034;38.910;2023-02-05T01:41:34;13.25;;;6.43;;
75687;SDS011;64300;45.034;38.910;2023-02-05T01:44:04;14.02;;;6.82;;
75687;SDS011;64300;45.034;38.910;2023-02-05T01:46:30;12.68;;;6.45;;
75687;SDS011;64300;45.034;38.910;2023-02-05T01:51:23;11.93;;;5.90;;
75687;SDS011;64300;45.034;38.910;2023-02-05T01:53:52;14.45;;;6.78;;
75687;SDS011;64300;45.034;38.910;2023-02-05T01:56:22;13.75;;;6.93;;
75687;SDS011;64300;45.034;38.910;2023-02-05T01:58:56;14.60;;;7.55;;
75687;SDS011;64300;45.034;38.910;2023-02-05T02:01:27;15.70;;;8.35;;
75687;SDS011;64300;45.034;38.910;2023-02-05T02:03:54;17.92;;;8.90;;
75687;SDS011;64300;45.034;38.910;2023-02-05T02:06:22;19.33;;;9.02;;
75687;SDS011;64300;45.034;38.910;2023-02-05T02:08:47;13.05;;;7.32;;
75687;SDS011;64300;45.034;38.910;2023-02-05T02:11:14;14.02;;;7.75;;
75687;SDS011;64300;45.034;38.910;2023-02-05T02:13:45;16.85;;;8.57;;
75687;SDS011;64300;45.034;38.910;2023-02-05T02:16:12;13.57;;;6.88;;
75687;SDS011;64300;45.034;38.910;2023-02-05T02:18:39;11.57;;;6.45;;
75687;SDS011;64300;45.034;38.910;2023-02-05T02:29:13;14.68;;;6.20;;
75687;SDS011;64300;45.034;38.910;2023-02-05T02:32:10;17.45;;;7.50;;
75687;SDS011;64300;45.034;38.910;2023-02-05T02:34:44;14.70;;;6.43;;
75687;SDS011;64300;45.034;38.910;2023-02-05T02:37:21;16.42;;;6.90;;
75687;SDS011;64300;45.034;38.910;2023-02-05T02:42:52;19.75;;;7.38;;
75687;SDS011;64300;45.034;38.910;2023-02-05T02:45:33;14.40;;;7.35;;
75687;SDS011;64300;45.034;38.910;2023-02-05T02:48:03;14.27;;;6.88;;
75687;SDS011;64300;45.034;38.910;2023-02-05T02:50:32;14.30;;;6.55;;
75687;SDS011;64300;45.034;38.910;2023-02-05T02:53:09;17.92;;;7.85;;
75687;SDS011;64300;45.034;38.910;2023-02-05T02:55:41;16.40;;;7.60;;
75687;SDS011;64300;45.034;38.910;2023-02-05T03:01:57;15.90;;;6.32;;
75687;SDS011;64300;45.034;38.910;2023-02-05T03:04:30;15.43;;;6.60;;
75687;SDS011;64300;45.034;38.910;2023-02-05T03:07:23;15.25;;;7.15;;
75687;SDS011;64300;45.034;38.910;2023-02-05T03:09:53;13.82;;;5.30;;
75687;SDS011;64300;45.034;38.910;2023-02-05T03:12:22;16.88;;;7.20;;
75687;SDS011;64300;45.034;38.910;2023-02-05T03:14:48;16.40;;;7.25;;
75687;SDS011;64300;45.034;38.910;2023-02-05T03:17:18;23.85;;;7.70;;
75687;SDS011;64300;45.034;38.910;2023-02-05T03:19:47;17.42;;;7.78;;
75687;SDS011;64300;45.034;38.910;2023-02-05T03:22:17;20.52;;;8.20;;
75687;SDS011;64300;45.034;38.910;2023-02-05T03:24:43;18.95;;;8.48;;
75687;SDS011;64300;45.034;38.910;2023-02-05T03:27:09;16.58;;;7.97;;
75687;SDS011;64300;45.034;38.910;2023-02-05T03:35:40;17.30;;;6.25;;
75687;SDS011;64300;45.034;38.910;2023-02-05T03:41:33;15.73;;;6.90;;
75687;SDS011;64300;45.034;38.910;2023-02-05T03:47:20;16.05;;;7.13;;
75687;SDS011;64300;45.034;38.910;2023-02-05T03:50:08;13.75;;;6.15;;
75687;SDS011;64300;45.034;38.910;2023-02-05T03:52:46;18.13;;;7.50;;
75687;SDS011;64300;45.034;38.910;2023-02-05T03:55:17;18.20;;;8.25;;
75687;SDS011;64300;45.034;38.910;2023-02-05T03:57:55;19.67;;;8.07;;
75687;SDS011;64300;45.034;38.910;2023-02-05T04:00:25;15.93;;;7.57;;
75687;SDS011;64300;45.034;38.910;2023-02-05T04:02:53;16.35;;;7.45;;
75687;SDS011;64300;45.034;38.910;2023-02-05T04:05:24;20.63;;;7.78;;
75687;SDS011;64300;45.034;38.910;2023-02-05T04:07:52;18.02;;;8.18;;
75687;SDS011;64300;45.034;38.910;2023-02-05T04:10:21;21.23;;;8.25;;
75687;SDS011;64300;45.034;38.910;2023-02-05T04:12:49;17.85;;;7.78;;
75687;SDS011;64300;45.034;38.910;2023-02-05T04:15:16;19.88;;;8.00;;
75687;SDS011;64300;45.034;38.910;2023-02-05T04:17:45;15.77;;;7.80;;
75687;SDS011;64300;45.034;38.910;2023-02-05T04:20:11;26.45;;;9.85;;
75687;SDS011;64300;45.034;38.910;2023-02-05T04:22:38;17.10;;;7.80;;
75687;SDS011;64300;45.034;38.910;2023-02-05T04:25:04;17.60;;;8.50;;
75687;SDS011;64300;45.034;38.910;2023-02-05T04:27:31;14.77;;;7.13;;
75687;SDS011;64300;45.034;38.910;2023-02-05T04:30:00;18.02;;;8.45;;
75687;SDS011;64300;45.034;38.910;2023-02-05T04:32:28;18.02;;;8.45;;
75687;SDS011;64300;45.034;38.910;2023-02-05T04:34:54;18.80;;;8.70;;
75687;SDS011;64300;45.034;38.910;2023-02-05T04:37:20;18.73;;;8.45;;
75687;SDS011;64300;45.034;38.910;2023-02-05T04:39:46;14.85;;;6.65;;
75687;SDS011;64300;45.034;38.910;2023-02-05T04:42:11;20.98;;;9.20;;
75687;SDS011;64300;45.034;38.910;2023-02-05T04:44:37;18.88;;;7.68;;
75687;SDS011;64300;45.034;38.910;2023-02-05T04:47:03;23.80;;;8.52;;
75687;SDS011;64300;45.034;38.910;2023-02-05T04:49:30;18.33;;;8.32;;
75687;SDS011;64300;45.034;38.910;2023-02-05T04:51:57;20.48;;;9.10;;
75687;SDS011;64300;45.034;38.910;2023-02-05T04:54:23;18.38;;;7.50;;
75687;SDS011;64300;45.034;38.910;2023-02-05T04:56:49;15.95;;;6.47;;
75687;SDS011;64300;45.034;38.910;2023-02-05T04:59:18;15.60;;;7.25;;
75687;SDS011;64300;45.034;38.910;2023-02-05T05:01:44;10.82;;;4.53;;
75687;SDS011;64300;45.034;38.910;2023-02-05T05:04:10;19.25;;;7.80;;
75687;SDS011;64300;45.034;38.910;2023-02-05T05:06:35;18.98;;;8.50;;
75687;SDS011;64300;45.034;38.910;2023-02-05T05:09:01;17.85;;;8.50;;
75687;SDS011;64300;45.034;38.910;2023-02-05T05:11:27;19.75;;;7.78;;
75687;SDS011;64300;45.034;38.910;2023-02-05T05:13:53;18.40;;;7.72;;
75687;SDS011;64300;45.034;38.910;2023-02-05T05:16:19;18.15;;;7.50;;
75687;SDS011;64300;45.034;38.910;2023-02-05T05:18:46;18.40;;;7.72;;
75687;SDS011;64300;45.034;38.910;2023-02-05T05:21:12;18.30;;;8.13;;
75687;SDS011;64300;45.034;38.910;2023-02-05T05:23:38;20.63;;;7.93;;
75687;SDS011;64300;45.034;38.910;2023-02-05T05:26:04;18.42;;;7.93;;
75687;SDS011;64300;45.034;38.910;2023-02-05T05:28:32;17.15;;;7.20;;
75687;SDS011;64300;45.034;38.910;2023-02-05T05:30:59;17.27;;;7.07;;
75687;SDS011;64300;45.034;38.910;2023-02-05T05:33:32;11.63;;;4.90;;
75687;SDS011;64300;45.034;38.910;2023-02-05T05:35:58;17.60;;;6.97;;
75687;SDS011;64300;45.034;38.910;2023-02-05T05:38:24;20.08;;;8.20;;
75687;SDS011;64300;45.034;38.910;2023-02-05T05:40:50;18.52;;;8.32;;
75687;SDS011;64300;45.034;38.910;2023-02-05T05:43:34;19.60;;;7.63;;
75687;SDS011;64300;45.034;38.910;2023-02-05T05:46:13;20.67;;;8.45;;
75687;SDS011;64300;45.034;38.910;2023-02-05T05:48:53;22.63;;;8.50;;
75687;SDS011;64300;45.034;38.910;2023-02-05T05:51:21;11.52;;;4.18;;
75687;SDS011;64300;45.034;38.910;2023-02-05T05:53:49;20.42;;;9.48;;
75687;SDS011;64300;45.034;38.910;2023-02-05T05:56:15;22.92;;;9.32;;
75687;SDS011;64300;45.034;38.910;2023-02-05T05:58:42;22.20;;;9.25;;
75687;SDS011;64300;45.034;38.910;2023-02-05T06:01:08;15.93;;;6.70;;
75687;SDS011;64300;45.034;38.910;2023-02-05T06:03:38;19.85;;;8.75;;
75687;SDS011;64300;45.034;38.910;2023-02-05T06:06:04;22.98;;;10.13;;
75687;SDS011;64300;45.034;38.910;2023-02-05T06:08:33;19.00;;;8.00;;
75687;SDS011;64300;45.034;38.910;2023-02-05T06:10:59;22.60;;;10.35;;
75687;SDS011;64300;45.034;38.910;2023-02-05T06:13:26;19.75;;;8.90;;
75687;SDS011;64300;45.034;38.910;2023-02-05T06:15:52;17.30;;;8.07;;
75687;SDS011;64300;45.034;38.910;2023-02-05T06:18:21;20.35;;;8.57;;
75687;SDS011;64300;45.034;38.910;2023-02-05T06:20:47;18.48;;;8.32;;
75687;SDS011;64300;45.034;38.910;2023-02-05T06:23:13;19.10;;;8.30;;
75687;SDS011;64300;45.034;38.910;2023-02-05T06:25:39;15.77;;;7.13;;
75687;SDS011;64300;45.034;38.910;2023-02-05T06:28:05;17.77;;;7.55;;
75687;SDS011;64300;45.034;38.910;2023-02-05T06:30:31;18.35;;;8.00;;
75687;SDS011;64300;45.034;38.910;2023-02-05T06:32:57;17.35;;;7.65;;
75687;SDS011;64300;45.034;38.910;2023-02-05T06:35:22;17.40;;;7.90;;
75687;SDS011;64300;45.034;38.910;2023-02-05T06:37:48;17.50;;;8.25;;
75687;SDS011;64300;45.034;38.910;2023-02-05T06:40:15;18.15;;;8.10;;
75687;SDS011;64300;45.034;38.910;2023-02-05T06:42:42;20.60;;;8.38;;
75687;SDS011;64300;45.034;38.910;2023-02-05T06:45:09;16.92;;;7.72;;
75687;SDS011;64300;45.034;38.910;2023-02-05T06:47:36;17.00;;;7.47;;
75687;SDS011;64300;45.034;38.910;2023-02-05T06:50:02;15.82;;;8.00;;
75687;SDS011;64300;45.034;38.910;2023-02-05T06:52:29;19.42;;;8.55;;
75687;SDS011;64300;45.034;38.910;2023-02-05T06:54:55;16.33;;;6.97;;
75687;SDS011;64300;45.034;38.910;2023-02-05T06:57:21;14.38;;;6.63;;
75687;SDS011;64300;45.034;38.910;2023-02-05T06:59:47;17.70;;;8.15;;
75687;SDS011;64300;45.034;38.910;2023-02-05T07:02:13;15.88;;;7.63;;
75687;SDS011;64300;45.034;38.910;2023-02-05T07:04:39;19.27;;;8.25;;
75687;SDS011;64300;45.034;38.910;2023-02-05T07:07:05;18.50;;;7.85;;
75687;SDS011;64300;45.034;38.910;2023-02-05T07:09:31;22.38;;;9.45;;
75687;SDS011;64300;45.034;38.910;2023-02-05T07:11:57;20.80;;;8.90;;
75687;SDS011;64300;45.034;38.910;2023-02-05T07:14:23;15.73;;;6.97;;
75687;SDS011;64300;45.034;38.910;2023-02-05T07:16:49;16.52;;;8.07;;
75687;SDS011;64300;45.034;38.910;2023-02-05T07:19:16;21.10;;;8.50;;
75687;SDS011;64300;45.034;38.910;2023-02-05T07:21:42;17.42;;;8.02;;
75687;SDS011;64300;45.034;38.910;2023-02-05T07:24:08;17.08;;;7.80;;
75687;SDS011;64300;45.034;38.910;2023-02-05T07:26:34;20.05;;;8.63;;
75687;SDS011;64300;45.034;38.910;2023-02-05T07:29:00;16.10;;;7.55;;
75687;SDS011;64300;45.034;38.910;2023-02-05T07:31:26;19.48;;;8.73;;
75687;SDS011;64300;45.034;38.910;2023-02-05T07:33:52;15.20;;;7.90;;
75687;SDS011;64300;45.034;38.910;2023-02-05T07:36:29;17.20;;;7.40;;
75687;SDS011;64300;45.034;38.910;2023-02-05T07:38:55;17.52;;;7.80;;
75687;SDS011;64300;45.034;38.910;2023-02-05T07:41:20;18.15;;;7.65;;
75687;SDS011;64300;45.034;38.910;2023-02-05T07:43:49;20.67;;;7.82;;
75687;SDS011;64300;45.034;38.910;2023-02-05T07:46:16;15.73;;;7.25;;
75687;SDS011;64300;45.034;38.910;2023-02-05T07:48:43;18.23;;;7.93;;
75687;SDS011;64300;45.034;38.910;2023-02-05T07:51:13;16.00;;;6.88;;
75687;SDS011;64300;45.034;38.910;2023-02-05T07:53:41;11.82;;;5.55;;
75687;SDS011;64300;45.034;38.910;2023-02-05T07:56:07;16.92;;;7.38;;
75687;SDS011;64300;45.034;38.910;2023-02-05T07:58:33;17.15;;;7.28;;
75687;SDS011;64300;45.034;38.910;2023-02-05T08:00:59;16.52;;;6.63;;
75687;SDS011;64300;45.034;38.910;2023-02-05T08:03:26;16.08;;;6.55;;
75687;SDS011;64300;45.034;38.910;2023-02-05T08:08:18;17.25;;;7.00;;
75687;SDS011;64300;45.034;38.910;2023-02-05T08:10:44;18.10;;;7.15;;
75687;SDS011;64300;45.034;38.910;2023-02-05T08:13:10;18.77;;;8.73;;
75687;SDS011;64300;45.034;38.910;2023-02-05T08:15:37;18.73;;;7.78;;
75687;SDS011;64300;45.034;38.910;2023-02-05T08:18:04;19.80;;;7.30;;
75687;SDS011;64300;45.034;38.910;2023-02-05T08:20:30;16.27;;;6.88;;
75687;SDS011;64300;45.034;38.910;2023-02-05T08:25:21;14.50;;;6.50;;
75687;SDS011;64300;45.034;38.910;2023-02-05T08:27:47;15.00;;;6.70;;
75687;SDS011;64300;45.034;38.910;2023-02-05T08:30:14;17.50;;;7.63;;
75687;SDS011;64300;45.034;38.910;2023-02-05T08:32:41;18.05;;;7.78;;
75687;SDS011;64300;45.034;38.910;2023-02-05T08:35:07;19.60;;;8.07;;
75687;SDS011;64300;45.034;38.910;2023-02-05T08:37:33;17.50;;;7.70;;
75687;SDS011;64300;45.034;38.910;2023-02-05T08:39:59;19.92;;;7.25;;
75687;SDS011;64300;45.034;38.910;2023-02-05T08:42:24;17.25;;;7.97;;
75687;SDS011;64300;45.034;38.910;2023-02-05T08:44:50;19.23;;;7.35;;
75687;SDS011;64300;45.034;38.910;2023-02-05T08:47:20;19.73;;;7.80;;
75687;SDS011;64300;45.034;38.910;2023-02-05T08:49:50;17.40;;;7.30;;
75687;SDS011;64300;45.034;38.910;2023-02-05T08:52:16;18.35;;;7.18;;
75687;SDS011;64300;45.034;38.910;2023-02-05T08:54:42;10.90;;;4.65;;
75687;SDS011;64300;45.034;38.910;2023-02-05T08:57:08;15.85;;;6.22;;
75687;SDS011;64300;45.034;38.910;2023-02-05T08:59:34;21.77;;;10.43;;
75687;SDS011;64300;45.034;38.910;2023-02-05T09:02:00;17.10;;;7.30;;
75687;SDS011;64300;45.034;38.910;2023-02-05T09:04:26;15.45;;;6.70;;
75687;SDS011;64300;45.034;38.910;2023-02-05T09:06:52;18.58;;;7.97;;
75687;SDS011;64300;45.034;38.910;2023-02-05T09:09:18;16.30;;;7.50;;
75687;SDS011;64300;45.034;38.910;2023-02-05T09:11:45;18.48;;;7.10;;
75687;SDS011;64300;45.034;38.910;2023-02-05T09:14:12;15.18;;;6.82;;
75687;SDS011;64300;45.034;38.910;2023-02-05T09:16:38;18.90;;;7.65;;
75687;SDS011;64300;45.034;38.910;2023-02-05T09:19:04;17.15;;;7.07;;
75687;SDS011;64300;45.034;38.910;2023-02-05T09:21:31;16.02;;;7.07;;
75687;SDS011;64300;45.034;38.910;2023-02-05T09:23:57;12.98;;;5.75;;
75687;SDS011;64300;45.034;38.910;2023-02-05T09:28:49;14.65;;;5.95;;
75687;SDS011;64300;45.034;38.910;2023-02-05T09:31:18;14.65;;;6.15;;
75687;SDS011;64300;45.034;38.910;2023-02-05T09:33:45;12.20;;;5.00;;
75687;SDS011;64300;45.034;38.910;2023-02-05T09:36:12;11.75;;;4.95;;
75687;SDS011;64300;45.034;38.910;2023-02-05T09:38:40;10.50;;;4.72;;
75687;SDS011;64300;45.034;38.910;2023-02-05T09:41:07;8.43;;;4.15;;
75687;SDS011;64300;45.034;38.910;2023-02-05T09:46:26;13.90;;;5.80;;
75687;SDS011;64300;45.034;38.910;2023-02-05T09:51:57;14.32;;;6.70;;
75687;SDS011;64300;45.034;38.910;2023-02-05T09:54:34;12.32;;;6.00;;
75687;SDS011;64300;45.034;38.910;2023-02-05T09:57:08;13.23;;;6.40;;
75687;SDS011;64300;45.034;38.910;2023-02-05T09:59:36;13.13;;;6.10;;
75687;SDS011;64300;45.034;38.910;2023-02-05T10:02:17;12.38;;;5.95;;
75687;SDS011;64300;45.034;38.910;2023-02-05T10:04:51;14.05;;;6.05;;
75687;SDS011;64300;45.034;38.910;2023-02-05T10:07:42;11.52;;;5.40;;
75687;SDS011;64300;45.034;38.910;2023-02-05T10:16:04;12.57;;;5.68;;
75687;SDS011;64300;45.034;38.910;2023-02-05T10:18:45;12.93;;;6.00;;
75687;SDS011;64300;45.034;38.910;2023-02-05T10:33:23;18.90;;;6.88;;
75687;SDS011;64300;45.034;38.910;2023-02-05T10:36:04;14.23;;;6.72;;
75687;SDS011;64300;45.034;38.910;2023-02-05T10:38:34;12.70;;;6.07;;
75687;SDS011;64300;45.034;38.910;2023-02-05T10:41:26;13.50;;;6.60;;
75687;SDS011;64300;45.034;38.910;2023-02-05T10:43:54;13.32;;;6.45;;
75687;SDS011;64300;45.034;38.910;2023-02-05T10:46:44;15.00;;;6.80;;
75687;SDS011;64300;45.034;38.910;2023-02-05T10:54:53;11.32;;;5.95;;
75687;SDS011;64300;45.034;38.910;2023-02-05T10:57:19;11.05;;;5.30;;
75687;SDS011;64300;45.034;38.910;2023-02-05T10:59:55;11.43;;;5.43;;
75687;SDS011;64300;45.034;38.910;2023-02-05T11:02:25;13.25;;;5.60;;
75687;SDS011;64300;45.034;38.910;2023-02-05T11:05:03;11.57;;;5.38;;
75687;SDS011;64300;45.034;38.910;2023-02-05T11:07:39;13.10;;;5.68;;
75687;SDS011;64300;45.034;38.910;2023-02-05T11:10:12;14.50;;;6.50;;
75687;SDS011;64300;45.034;38.910;2023-02-05T11:12:53;11.77;;;5.45;;
75687;SDS011;64300;45.034;38.910;2023-02-05T11:15:23;14.68;;;6.50;;
75687;SDS011;64300;45.034;38.910;2023-02-05T11:18:04;9.07;;;4.07;;
75687;SDS011;64300;45.034;38.910;2023-02-05T11:23:20;14.88;;;7.20;;
75687;SDS011;64300;45.034;38.910;2023-02-05T11:25:55;12.65;;;5.57;;
75687;SDS011;64300;45.034;38.910;2023-02-05T11:28:26;10.20;;;4.78;;
75687;SDS011;64300;45.034;38.910;2023-02-05T11:31:16;14.27;;;5.50;;
75687;SDS011;64300;45.034;38.910;2023-02-05T11:33:51;12.02;;;6.20;;
75687;SDS011;64300;45.034;38.910;2023-02-05T11:36:39;10.93;;;4.90;;
75687;SDS011;64300;45.034;38.910;2023-02-05T11:41:52;11.90;;;5.97;;
75687;SDS011;64300;45.034;38.910;2023-02-05T11:44:24;12.27;;;6.05;;
75687;SDS011;64300;45.034;38.910;2023-02-05T11:46:56;11.25;;;5.60;;
75687;SDS011;64300;45.034;38.910;2023-02-05T11:49:37;11.45;;;5.65;;
75687;SDS011;64300;45.034;38.910;2023-02-05T11:52:12;11.43;;;5.22;;
75687;SDS011;64300;45.034;38.910;2023-02-05T11:54:43;7.88;;;3.40;;
75687;SDS011;64300;45.034;38.910;2023-02-05T11:59:57;10.82;;;5.50;;
75687;SDS011;64300;45.034;38.910;2023-02-05T12:04:58;11.00;;;5.32;;
75687;SDS011;64300;45.034;38.910;2023-02-05T12:07:26;12.98;;;5.95;;
75687;SDS011;64300;45.034;38.910;2023-02-05T12:09:58;12.10;;;5.55;;
75687;SDS011;64300;45.034;38.910;2023-02-05T12:14:55;12.57;;;3.17;;
75687;SDS011;64300;45.034;38.910;2023-02-05T12:25:26;8.77;;;2.95;;
75687;SDS011;64300;45.034;38.910;2023-02-05T12:33:57;12.95;;;5.80;;
75687;SDS011;64300;45.034;38.910;2023-02-05T12:36:27;12.68;;;5.95;;
75687;SDS011;64300;45.034;38.910;2023-02-05T12:47:29;14.10;;;5.25;;
75687;SDS011;64300;45.034;38.910;2023-02-05T12:59:56;12.43;;;5.88;;
75687;SDS011;64300;45.034;38.910;2023-02-05T13:01:58;11.68;;;5.18;;
75687;SDS011;64300;45.034;38.910;2023-02-05T13:04:38;11.95;;;5.00;;
75687;SDS011;64300;45.034;38.910;2023-02-05T13:07:09;11.63;;;5.75;;
75687;SDS011;64300;45.034;38.910;2023-02-05T13:09:49;13.43;;;5.43;;
75687;SDS011;64300;45.034;38.910;2023-02-05T13:12:25;12.65;;;5.70;;
75687;SDS011;64300;45.034;38.910;2023-02-05T13:15:06;9.73;;;4.07;;
75687;SDS011;64300;45.034;38.910;2023-02-05T13:17:41;13.00;;;6.22;;
75687;SDS011;64300;45.034;38.910;2023-02-05T13:20:39;9.18;;;4.93;;
75687;SDS011;64300;45.034;38.910;2023-02-05T13:23:26;10.80;;;5.13;;
75687;SDS011;64300;45.034;38.910;2023-02-05T13:26:12;10.88;;;5.00;;
75687;SDS011;64300;45.034;38.910;2023-02-05T13:33:46;9.95;;;5.30;;
75687;SDS011;64300;45.034;38.910;2023-02-05T13:47:48;13.95;;;6.50;;
75687;SDS011;64300;45.034;38.910;2023-02-05T13:50:55;11.00;;;5.72;;
75687;SDS011;64300;45.034;38.910;2023-02-05T13:53:41;12.35;;;6.35;;
75687;SDS011;64300;45.034;38.910;2023-02-05T13:56:51;11.65;;;5.97;;
75687;SDS011;64300;45.034;38.910;2023-02-05T13:59:40;11.52;;;5.53;;
75687;SDS011;64300;45.034;38.910;2023-02-05T14:05:26;15.35;;;6.22;;
75687;SDS011;64300;45.034;38.910;2023-02-05T14:07:54;12.20;;;4.60;;
75687;SDS011;64300;45.034;38.910;2023-02-05T14:12:52;11.93;;;5.90;;
75687;SDS011;64300;45.034;38.910;2023-02-05T14:23:00;13.85;;;6.35;;
75687;SDS011;64300;45.034;38.910;2023-02-05T14:33:27;15.70;;;6.40;;
75687;SDS011;64300;45.034;38.910;2023-02-05T14:35:55;14.48;;;6.15;;
75687;SDS011;64300;45.034;38.910;2023-02-05T14:39:00;13.45;;;6.30;;
75687;SDS011;64300;45.034;38.910;2023-02-05T14:42:05;12.73;;;6.20;;
75687;SDS011;64300;45.034;38.910;2023-02-05T14:51:59;11.88;;;5.13;;
75687;SDS011;64300;45.034;38.910;2023-02-05T14:54:28;13.65;;;6.28;;
75687;SDS011;64300;45.034;38.910;2023-02-05T14:57:15;13.32;;;5.90;;
75687;SDS011;64300;45.034;38.910;2023-02-05T15:05:35;14.05;;;5.70;;
75687;SDS011;64300;45.034;38.910;2023-02-05T15:08:13;11.73;;;5.45;;
75687;SDS011;64300;45.034;38.910;2023-02-05T15:19:32;16.85;;;5.10;;
75687;SDS011;64300;45.034;38.910;2023-02-05T15:22:04;12.07;;;5.50;;
75687;SDS011;64300;45.034;38.910;2023-02-05T15:24:40;10.93;;;5.22;;
75687;SDS011;64300;45.034;38.910;2023-02-05T15:27:12;9.15;;;4.05;;
75687;SDS011;64300;45.034;38.910;2023-02-05T15:29:56;15.10;;;5.20;;
75687;SDS011;64300;45.034;38.910;2023-02-05T15:32:29;14.15;;;6.90;;
75687;SDS011;64300;45.034;38.910;2023-02-05T15:35:10;11.52;;;5.97;;
75687;SDS011;64300;45.034;38.910;2023-02-05T15:37:44;13.40;;;5.90;;
75687;SDS011;64300;45.034;38.910;2023-02-05T15:42:56;13.85;;;5.53;;
75687;SDS011;64300;45.034;38.910;2023-02-05T15:45:33;12.25;;;5.75;;
75687;SDS011;64300;45.034;38.910;2023-02-05T15:48:13;15.50;;;6.38;;
75687;SDS011;64300;45.034;38.910;2023-02-05T15:55:57;13.68;;;5.00;;
75687;SDS011;64300;45.034;38.910;2023-02-05T15:58:32;14.45;;;5.53;;
75687;SDS011;64300;45.034;38.910;2023-02-05T16:00:58;7.63;;;3.47;;
75687;SDS011;64300;45.034;38.910;2023-02-05T16:03:32;11.23;;;5.22;;
75687;SDS011;64300;45.034;38.910;2023-02-05T16:05:59;9.43;;;4.28;;
75687;SDS011;64300;45.034;38.910;2023-02-05T16:08:26;11.45;;;5.32;;
75687;SDS011;64300;45.034;38.910;2023-02-05T16:10:53;13.43;;;5.30;;
75687;SDS011;64300;45.034;38.910;2023-02-05T16:13:27;12.38;;;5.95;;
75687;SDS011;64300;45.034;38.910;2023-02-05T16:18:36;8.25;;;3.58;;
75687;SDS011;64300;45.034;38.910;2023-02-05T16:21:38;14.02;;;6.10;;
75687;SDS011;64300;45.034;38.910;2023-02-05T16:24:13;11.27;;;5.40;;
75687;SDS011;64300;45.034;38.910;2023-02-05T16:26:51;11.98;;;5.57;;
75687;SDS011;64300;45.034;38.910;2023-02-05T16:29:31;12.80;;;5.32;;
75687;SDS011;64300;45.034;38.910;2023-02-05T16:32:04;14.15;;;5.30;;
75687;SDS011;64300;45.034;38.910;2023-02-05T16:34:33;15.02;;;6.20;;
75687;SDS011;64300;45.034;38.910;2023-02-05T16:37:03;10.02;;;4.28;;
75687;SDS011;64300;45.034;38.910;2023-02-05T16:39:42;12.77;;;5.35;;
75687;SDS011;64300;45.034;38.910;2023-02-05T16:44:39;14.95;;;5.13;;
75687;SDS011;64300;45.034;38.910;2023-02-05T16:47:18;13.10;;;5.45;;
75687;SDS011;64300;45.034;38.910;2023-02-05T16:49:45;15.65;;;5.40;;
75687;SDS011;64300;45.034;38.910;2023-02-05T16:54:58;9.55;;;4.47;;
75687;SDS011;64300;45.034;38.910;2023-02-05T16:57:32;16.10;;;6.45;;
75687;SDS011;64300;45.034;38.910;2023-02-05T17:00:03;14.40;;;6.70;;
75687;SDS011;64300;45.034;38.910;2023-02-05T17:02:36;17.48;;;6.78;;
75687;SDS011;64300;45.034;38.910;2023-02-05T17:07:54;14.27;;;6.55;;
75687;SDS011;64300;45.034;38.910;2023-02-05T17:10:22;12.98;;;5.97;;
75687;SDS011;64300;45.034;38.910;2023-02-05T17:12:51;14.82;;;5.95;;
75687;SDS011;64300;45.034;38.910;2023-02-05T17:15:37;7.82;;;3.88;;
75687;SDS011;64300;45.034;38.910;2023-02-05T17:20:44;11.77;;;4.90;;
75687;SDS011;64300;45.034;38.910;2023-02-05T17:23:12;14.32;;;6.53;;
75687;SDS011;64300;45.034;38.910;2023-02-05T17:25:50;13.10;;;6.28;;
75687;SDS011;64300;45.034;38.910;2023-02-05T17:31:22;14.50;;;4.90;;
75687;SDS011;64300;45.034;38.910;2023-02-05T17:33:54;12.05;;;4.75;;
75687;SDS011;64300;45.034;38.910;2023-02-05T17:36:22;6.72;;;3.28;;
75687;SDS011;64300;45.034;38.910;2023-02-05T17:38:49;13.32;;;5.18;;
75687;SDS011;64300;45.034;38.910;2023-02-05T17:41:19;15.32;;;5.80;;
75687;SDS011;64300;45.034;38.910;2023-02-05T17:44:13;15.40;;;6.00;;
75687;SDS011;64300;45.034;38.910;2023-02-05T17:49:08;11.52;;;4.57;;
75687;SDS011;64300;45.034;38.910;2023-02-05T17:54:03;11.73;;;4.88;;
75687;SDS011;64300;45.034;38.910;2023-02-05T17:56:30;13.27;;;4.45;;
75687;SDS011;64300;45.034;38.910;2023-02-05T17:58:56;8.32;;;3.53;;
75687;SDS011;64300;45.034;38.910;2023-02-05T18:01:22;10.80;;;4.30;;
75687;SDS011;64300;45.034;38.910;2023-02-05T18:04:00;12.25;;;5.10;;
75687;SDS011;64300;45.034;38.910;2023-02-05T18:06:26;13.77;;;5.40;;
75687;SDS011;64300;45.034;38.910;2023-02-05T18:11:18;9.50;;;4.07;;
75687;SDS011;64300;45.034;38.910;2023-02-05T18:16:10;7.72;;;3.35;;
75687;SDS011;64300;45.034;38.910;2023-02-05T18:18:36;7.68;;;3.53;;
75687;SDS011;64300;45.034;38.910;2023-02-05T18:21:03;9.70;;;3.80;;